Terminal Aerodrome Forecast
Issued by NWS Pocatello, ID

Home | Current Version | Previous Version | Text Only | Print | Product List | Glossary On
Versions: 1 2 3 4 5 6 7 8 9 10 11 12 13 14 15 16 17 18 19 20 21 22 23 24 25 26 27 28 29
000
FTUS45 KPIH 250500
TAFPIH
TAF
KPIH 250520Z 2506/2606 VRB06KT P6SM OVC080
     FM251200 20008KT P6SM -RA SCT020 OVC035
     FM251900 22010G20KT P6SM -SHRA OVC040
     FM260300 21007KT P6SM -SHRA OVC040=

USA.gov is the U.S. government's official web portal to all federal, state and local government web resources and services.